createdAt,value
2022-08-09T00:02:49.994Z,15.20
2022-08-09T00:06:48.782Z,15.10
2022-08-09T00:10:45.794Z,15.00
2022-08-09T00:14:45.349Z,15.00
2022-08-09T00:18:45.065Z,15.00
2022-08-09T00:22:42.411Z,14.90
2022-08-09T00:26:42.021Z,14.90
2022-08-09T00:30:39.033Z,14.80
2022-08-09T00:34:37.747Z,14.80
2022-08-09T00:38:35.508Z,14.70
2022-08-09T00:44:10.922Z,14.70
2022-08-09T00:46:57.500Z,14.50
2022-08-09T00:51:05.160Z,14.40
2022-08-09T00:55:16.741Z,14.30
2022-08-09T00:59:40.750Z,14.20
2022-08-09T01:03:51.931Z,14.20
2022-08-09T01:08:13.716Z,14.10
2022-08-09T01:12:38.598Z,14.00
2022-08-09T01:16:46.978Z,13.90
2022-08-09T01:21:20.939Z,13.90
2022-08-09T01:26:01.093Z,13.80
2022-08-09T01:30:06.861Z,13.80
2022-08-09T01:34:10.715Z,13.70
2022-08-09T01:38:15.829Z,13.60
2022-08-09T01:42:13.867Z,13.60
2022-08-09T01:46:23.845Z,13.50
2022-08-09T01:50:36.605Z,13.50
2022-08-09T01:54:40.698Z,13.40
2022-08-09T01:58:40.239Z,13.50
2022-08-09T02:02:43.953Z,13.40
2022-08-09T02:07:03.176Z,13.40
2022-08-09T02:11:16.976Z,13.30
2022-08-09T02:15:19.583Z,13.30
2022-08-09T02:19:20.776Z,13.20
2022-08-09T02:23:39.874Z,13.10
2022-08-09T02:28:00.660Z,13.00
2022-08-09T02:32:04.677Z,13.00
2022-08-09T02:36:08.027Z,12.90
2022-08-09T02:40:13.121Z,12.90
2022-08-09T02:44:29.578Z,12.80
2022-08-09T02:48:31.709Z,12.80
2022-08-09T02:52:37.521Z,12.80
2022-08-09T02:56:37.990Z,12.70
2022-08-09T03:00:57.598Z,12.70
2022-08-09T03:04:58.937Z,12.70
2022-08-09T03:09:00.331Z,12.60
2022-08-09T03:13:00.413Z,12.60
2022-08-09T03:17:01.834Z,12.60
2022-08-09T03:21:02.974Z,12.50
2022-08-09T03:25:06.210Z,12.40
2022-08-09T03:29:22.985Z,12.40
2022-08-09T03:33:21.837Z,12.30
2022-08-09T03:37:56.662Z,12.20
2022-08-09T03:41:45.772Z,12.20
2022-08-09T03:46:05.423Z,12.20
2022-08-09T03:50:06.841Z,12.10
2022-08-09T03:54:06.262Z,12.10
2022-08-09T03:58:14.862Z,12.10
2022-08-09T04:02:14.236Z,12.10
2022-08-09T04:06:11.852Z,12.10
2022-08-09T04:10:09.301Z,12.10
2022-08-09T04:14:53.002Z,12.10
2022-08-09T04:18:24.911Z,12.10
2022-08-09T04:22:22.269Z,12.10
2022-08-09T04:26:19.277Z,12.10
2022-08-09T04:30:23.363Z,12.10
2022-08-09T04:34:30.481Z,12.10
2022-08-09T04:38:28.728Z,12.20
2022-08-09T04:42:29.773Z,12.20
2022-08-09T04:46:56.814Z,12.30
2022-08-09T04:50:45.067Z,12.30
2022-08-09T04:54:43.584Z,12.40
2022-08-09T04:58:41.004Z,12.40
2022-08-09T05:02:38.967Z,12.40
2022-08-09T05:06:37.455Z,12.50
2022-08-09T05:10:36.647Z,12.50
2022-08-09T05:14:35.190Z,12.50
2022-08-09T05:18:42.044Z,12.60
2022-08-09T05:23:57.910Z,12.90
2022-08-09T05:27:09.888Z,13.00
2022-08-09T05:31:10.574Z,13.20
2022-08-09T05:35:08.269Z,13.40
2022-08-09T05:39:06.187Z,13.50
2022-08-09T05:43:07.672Z,13.70
2022-08-09T05:47:06.392Z,13.80
2022-08-09T05:51:16.944Z,14.00
2022-08-09T05:55:21.840Z,14.10
2022-08-09T05:59:22.045Z,14.30
2022-08-09T06:03:19.936Z,14.50
2022-08-09T06:07:21.294Z,14.70
2022-08-09T06:11:19.059Z,14.90
2022-08-09T06:15:21.557Z,15.10
2022-08-09T06:19:19.007Z,15.30
2022-08-09T06:23:17.987Z,15.50
2022-08-09T06:27:15.680Z,15.80
2022-08-09T06:31:12.953Z,16.00
2022-08-09T06:35:11.187Z,16.20
2022-08-09T06:39:11.661Z,16.50
2022-08-09T06:43:10.409Z,16.70
2022-08-09T06:47:08.512Z,16.90
2022-08-09T06:51:05.759Z,17.10
2022-08-09T06:55:10.083Z,17.30
2022-08-09T07:00:49.734Z,17.40
2022-08-09T07:03:28.357Z,17.70
2022-08-09T07:07:58.998Z,17.80
2022-08-09T07:11:51.992Z,18.00
2022-08-09T07:16:38.720Z,18.20
2022-08-09T07:20:09.727Z,18.40
2022-08-09T07:24:07.277Z,18.60
2022-08-09T07:28:04.779Z,18.70
2022-08-09T07:32:03.738Z,18.90
2022-08-09T07:36:00.762Z,19.00
2022-08-09T07:39:58.195Z,19.30
2022-08-09T07:43:56.710Z,19.50
2022-08-09T07:48:01.678Z,19.80
2022-08-09T07:52:05.013Z,19.90
2022-08-09T07:56:27.136Z,20.20
2022-08-09T08:00:36.117Z,20.50
2022-08-09T08:04:34.291Z,20.80
2022-08-09T08:09:02.145Z,21.30
2022-08-09T08:12:49.445Z,21.90
2022-08-09T08:17:00.829Z,22.60
2022-08-09T08:21:03.515Z,23.20
2022-08-09T08:25:00.509Z,23.90
2022-08-09T08:28:57.490Z,24.50
2022-08-09T08:32:54.825Z,25.20
2022-08-09T08:36:51.834Z,25.90
2022-08-09T08:40:50.167Z,26.40
2022-08-09T08:44:57.740Z,26.80
2022-08-09T08:48:56.021Z,27.00
2022-08-09T08:52:59.485Z,26.50
2022-08-09T08:56:58.606Z,26.50
2022-08-09T09:00:58.261Z,26.80
2022-08-09T09:04:59.347Z,26.70
2022-08-09T09:09:06.812Z,26.70
2022-08-09T09:13:19.456Z,27.10
2022-08-09T09:17:21.134Z,26.60
2022-08-09T09:21:26.043Z,26.20
2022-08-09T09:26:00.868Z,26.50
2022-08-09T09:30:26.230Z,27.50
2022-08-09T09:34:29.945Z,28.80
2022-08-09T09:38:56.923Z,28.10
2022-08-09T09:42:57.897Z,29.30
2022-08-09T09:47:16.435Z,30.10
2022-08-09T09:51:26.213Z,30.30
2022-08-09T09:56:05.253Z,30.20
2022-08-09T10:00:03.378Z,29.80
2022-08-09T10:04:16.265Z,28.70
2022-08-09T10:08:28.468Z,28.20
2022-08-09T10:12:51.782Z,28.90
2022-08-09T10:16:57.813Z,29.90
2022-08-09T10:21:11.083Z,30.00
2022-08-09T10:25:12.293Z,30.70
2022-08-09T10:29:37.557Z,31.20
2022-08-09T10:34:11.161Z,30.60
2022-08-09T10:37:49.181Z,31.30
2022-08-09T10:41:49.583Z,31.20
2022-08-09T10:45:58.499Z,30.80
2022-08-09T10:50:21.089Z,31.80
2022-08-09T10:54:28.181Z,31.90
2022-08-09T10:58:35.340Z,30.70
2022-08-09T11:03:15.364Z,29.80
2022-08-09T11:07:01.534Z,29.90
2022-08-09T11:11:08.797Z,30.30
2022-08-09T11:15:33.839Z,30.40
2022-08-09T11:20:11.775Z,30.90
2022-08-09T11:24:19.599Z,32.30
2022-08-09T11:28:56.284Z,33.10
2022-08-09T11:33:03.295Z,33.20
2022-08-09T11:37:02.589Z,32.50
2022-08-09T11:41:14.248Z,33.80
2022-08-09T11:45:42.785Z,35.60
2022-08-09T11:50:56.658Z,36.10
2022-08-09T11:54:27.500Z,34.80
2022-08-09T11:58:33.631Z,34.10
2022-08-09T12:02:37.069Z,33.40
2022-08-09T12:06:36.303Z,34.70
2022-08-09T12:10:40.037Z,35.70
2022-08-09T12:14:58.920Z,36.50
2022-08-09T12:18:56.236Z,36.60
2022-08-09T12:23:01.255Z,34.60
2022-08-09T12:29:13.894Z,33.80
2022-08-09T12:31:58.202Z,34.60
2022-08-09T12:35:40.805Z,34.40
2022-08-09T12:39:40.160Z,33.90
2022-08-09T12:44:05.529Z,33.50
2022-08-09T12:47:56.263Z,34.70
2022-08-09T12:52:01.058Z,35.80
2022-08-09T12:56:40.009Z,34.70
2022-08-09T13:00:43.976Z,35.30
2022-08-09T13:05:02.636Z,35.60
2022-08-09T13:09:06.135Z,36.40
2022-08-09T13:13:11.280Z,36.50
2022-08-09T13:17:21.919Z,37.10
2022-08-09T13:22:36.525Z,37.20
2022-08-09T13:25:54.598Z,35.80
2022-08-09T13:30:51.141Z,35.00
2022-08-09T13:34:30.386Z,33.20
2022-08-09T13:38:54.189Z,31.80
2022-08-09T13:42:47.410Z,31.20
2022-08-09T13:47:29.520Z,31.00
2022-08-09T13:51:03.681Z,31.30
2022-08-09T13:55:05.121Z,32.20
2022-08-09T13:59:04.472Z,34.10
2022-08-09T14:03:03.664Z,35.60
2022-08-09T14:07:13.715Z,37.10
2022-08-09T14:11:16.087Z,36.80
2022-08-09T14:15:13.493Z,35.30
2022-08-09T14:19:33.563Z,33.50
2022-08-09T14:23:40.360Z,34.10
2022-08-09T14:27:58.454Z,35.50
2022-08-09T14:31:56.394Z,34.70
2022-08-09T14:35:54.565Z,34.10
2022-08-09T14:39:51.607Z,35.60
2022-08-09T14:43:53.730Z,35.20
2022-08-09T14:47:58.407Z,35.80
2022-08-09T14:51:58.609Z,37.10
2022-08-09T14:55:56.218Z,38.00
2022-08-09T14:59:53.287Z,37.90
2022-08-09T15:03:50.357Z,36.10
2022-08-09T15:07:56.014Z,33.30
2022-08-09T15:11:54.099Z,32.20
2022-08-09T15:15:51.899Z,32.00
2022-08-09T15:19:54.538Z,33.90
2022-08-09T15:24:05.959Z,35.70
2022-08-09T15:28:27.149Z,36.70
2022-08-09T15:32:29.813Z,34.90
2022-08-09T15:36:36.638Z,35.60
2022-08-09T15:40:33.782Z,35.20
2022-08-09T15:44:32.687Z,34.50
2022-08-09T15:48:31.926Z,33.10
2022-08-09T15:52:29.310Z,32.20
2022-08-09T15:56:29.335Z,32.30
2022-08-09T16:00:28.232Z,32.10
2022-08-09T16:04:25.307Z,31.10
2022-08-09T16:08:30.803Z,30.10
2022-08-09T16:12:30.803Z,30.10
2022-08-09T16:16:31.417Z,31.40
2022-08-09T16:20:30.551Z,32.40
2022-08-09T16:24:32.795Z,33.80
2022-08-09T16:28:31.116Z,33.60
2022-08-09T16:32:49.542Z,34.10
2022-08-09T16:36:46.854Z,34.50
2022-08-09T16:40:44.014Z,35.50
2022-08-09T16:44:42.959Z,34.80
2022-08-09T16:48:53.274Z,33.00
2022-08-09T16:52:52.978Z,31.90
2022-08-09T16:56:50.819Z,30.60
2022-08-09T17:00:49.662Z,30.20
2022-08-09T17:04:47.031Z,30.80
2022-08-09T17:09:01.715Z,30.90
2022-08-09T17:13:02.821Z,30.40
2022-08-09T17:17:26.400Z,30.10
2022-08-09T17:21:22.179Z,29.70
2022-08-09T17:25:20.467Z,29.10
2022-08-09T17:29:21.030Z,29.10
2022-08-09T17:33:22.308Z,29.70
2022-08-09T17:37:21.139Z,30.00
2022-08-09T17:41:18.327Z,29.50
2022-08-09T17:45:37.367Z,29.30
2022-08-09T17:49:35.382Z,29.00
2022-08-09T17:53:32.367Z,28.80
2022-08-09T17:58:03.713Z,27.90
2022-08-09T18:02:06.770Z,27.10
2022-08-09T18:06:22.385Z,26.50
2022-08-09T18:10:29.443Z,26.30
2022-08-09T18:14:26.673Z,26.00
2022-08-09T18:18:26.025Z,25.80
2022-08-09T18:22:34.006Z,25.50
2022-08-09T18:26:31.932Z,25.20
2022-08-09T18:30:42.420Z,25.00
2022-08-09T18:34:46.134Z,24.70
2022-08-09T18:38:45.328Z,24.50
2022-08-09T18:42:44.790Z,24.20
2022-08-09T18:46:51.472Z,24.00
2022-08-09T18:51:01.104Z,23.70
2022-08-09T18:54:58.183Z,23.40
2022-08-09T18:58:57.175Z,23.20
2022-08-09T19:02:54.557Z,22.90
2022-08-09T19:06:55.062Z,22.70
2022-08-09T19:10:52.051Z,22.50
2022-08-09T19:14:51.714Z,22.30
2022-08-09T19:18:49.126Z,22.10
2022-08-09T19:22:54.203Z,22.00
2022-08-09T19:26:51.970Z,21.80
2022-08-09T19:30:48.981Z,21.70
2022-08-09T19:34:49.718Z,21.50
2022-08-09T19:38:51.835Z,21.40
2022-08-09T19:42:49.757Z,21.20
2022-08-09T19:46:50.857Z,21.10
2022-08-09T19:50:53.980Z,20.90
2022-08-09T19:54:51.428Z,20.80
2022-08-09T19:58:56.496Z,20.70
2022-08-09T20:04:26.524Z,20.60
2022-08-09T20:07:22.792Z,20.50
2022-08-09T20:11:21.465Z,20.40
2022-08-09T20:16:34.221Z,20.30
2022-08-09T20:19:48.353Z,20.20
2022-08-09T20:23:50.806Z,20.10
2022-08-09T20:27:48.945Z,20.10
2022-08-09T20:32:16.962Z,20.00
2022-08-09T20:36:03.343Z,19.90
2022-08-09T20:40:15.255Z,19.80
2022-08-09T20:44:15.270Z,19.70
2022-08-09T20:48:23.343Z,19.60
2022-08-09T20:52:20.726Z,19.50
2022-08-09T20:56:22.119Z,19.40
2022-08-09T21:00:31.357Z,19.30
2022-08-09T21:05:54.620Z,19.20
2022-08-09T21:08:52.757Z,19.10
2022-08-09T21:16:55.088Z,18.90
2022-08-09T21:20:54.474Z,18.80
2022-08-09T21:25:11.771Z,18.80
2022-08-09T21:29:11.645Z,18.70
2022-08-09T21:33:10.915Z,18.70
2022-08-09T21:37:17.946Z,18.50
2022-08-09T21:41:17.106Z,18.50
2022-08-09T21:45:15.782Z,18.40
2022-08-09T21:49:14.531Z,18.30
2022-08-09T21:53:23.894Z,18.20
2022-08-09T21:57:38.815Z,18.10
2022-08-09T22:02:00.564Z,17.90
2022-08-09T22:05:58.721Z,17.90
2022-08-09T22:09:56.383Z,17.80
2022-08-09T22:13:53.843Z,17.70
2022-08-09T22:17:51.198Z,17.60
2022-08-09T22:21:51.039Z,17.50
2022-08-09T22:26:12.171Z,17.40
2022-08-09T22:30:06.019Z,17.30
2022-08-09T22:34:14.405Z,17.20
2022-08-09T22:38:11.633Z,17.10
2022-08-09T22:42:20.965Z,17.10
2022-08-09T22:48:14.689Z,16.90
2022-08-09T22:50:36.671Z,16.80
2022-08-09T22:54:33.902Z,16.70
2022-08-09T22:58:33.585Z,16.70
2022-08-09T23:02:31.845Z,16.60
2022-08-09T23:06:48.852Z,16.50
2022-08-09T23:10:45.831Z,16.50
2022-08-09T23:14:44.720Z,16.40
2022-08-09T23:18:43.167Z,16.30
2022-08-09T23:22:40.416Z,16.30
2022-08-09T23:26:39.161Z,16.20
2022-08-09T23:30:36.175Z,16.10
2022-08-09T23:34:33.189Z,16.00
2022-08-09T23:38:31.494Z,15.90
2022-08-09T23:42:28.580Z,15.90
2022-08-09T23:46:26.744Z,15.80
2022-08-09T23:50:23.775Z,15.70
2022-08-09T23:54:26.488Z,15.60
2022-08-09T23:58:29.591Z,15.50
